EDT,Max TemperatureF,Mean TemperatureF,Min TemperatureF,Max Dew PointF,MeanDew PointF,Min DewpointF,Max Humidity, Mean Humidity, Min Humidity, Max Sea Level PressureIn, Mean Sea Level PressureIn, Min Sea Level PressureIn, Max VisibilityMiles, Mean VisibilityMiles, Min VisibilityMiles, Max Wind SpeedMPH, Mean Wind SpeedMPH, Max Gust SpeedMPH,PrecipitationIn, CloudCover, Events, WindDirDegrees
2012-10-1,81,74,67,74,71,67,100,92,72,29.87,29.80,29.74,10,7,2,10,3,16,0.00,6,,131
2012-10-2,81,74,66,74,69,65,100,86,61,30.04,29.88,29.76,10,10,4,13,6,17,0.00,4,,199
2012-10-3,76,70,63,69,66,64,100,93,71,30.25,30.15,30.04,10,10,5,5,1,,0.00,4,,218
2012-10-4,81,70,59,67,64,57,100,86,44,30.32,30.26,30.21,10,9,5,6,1,,0.00,2,,290
2012-10-5,83,68,52,64,59,52,100,82,43,30.25,30.17,30.07,10,8,3,9,1,,0.00,0,,147
2012-10-6,84,69,54,66,60,55,100,79,44,30.09,30.02,29.94,10,8,3,9,2,,0.00,0,,264
2012-10-7,78,67,56,64,61,57,100,85,59,30.11,30.04,30.00,10,9,2,12,2,18,0.00,0,,296
2012-10-8,60,56,53,59,53,50,97,85,79,30.19,30.15,30.09,10,10,10,10,7,16,0.00,8,,39
2012-10-9,69,58,47,53,51,47,100,82,56,30.22,30.17,30.11,10,10,7,10,5,,0.00,4,,20
2012-10-10,74,59,44,58,53,44,100,84,55,30.20,30.16,30.11,10,10,5,15,3,21,0.00,3,,275
2012-10-11,73,57,41,54,49,41,100,80,45,30.34,30.27,30.20,10,8,2,9,1,16,0.00,0,,103
2012-10-12,81,65,49,62,57,50,100,74,47,30.29,30.24,30.19,10,10,7,12,2,16,0.00,1,,317
2012-10-13,73,62,50,58,54,50,100,79,53,30.44,30.36,30.30,10,9,5,13,4,20,0.00,1,,69
2012-10-14,79,64,49,67,60,49,100,87,62,30.34,30.22,30.09,10,9,5,9,2,,0.00,3,,146
2012-10-15,78,65,50,68,61,50,100,83,41,30.09,29.96,29.87,10,10,5,17,4,25,0.00,2,,240
2012-10-16,72,55,38,51,46,38,100,76,34,30.04,29.98,29.92,10,10,7,8,1,,0.00,0,,5
2012-10-17,73,60,46,54,49,47,100,75,41,30.05,29.97,29.91,10,10,10,8,1,,0.00,0,,146
2012-10-18,77,61,45,64,58,46,100,86,59,29.94,29.88,29.83,10,9,4,9,2,,0.00,3,,205
2012-10-19,75,60,46,61,44,34,100,62,23,29.90,29.86,29.80,10,9,0,15,4,22,0.00,0,,258
2012-10-20,71,56,40,49,44,39,97,70,40,30.01,29.93,29.87,10,10,7,15,2,22,0.00,0,,269
2012-10-21,71,54,38,50,45,38,100,75,40,30.19,30.14,30.01,10,10,10,9,1,,0.00,0,,48
2012-10-22,77,58,39,53,48,39,100,73,37,30.28,30.22,30.17,10,10,10,7,1,,0.00,0,,68
2012-10-23,78,59,40,55,49,41,100,74,36,30.26,30.20,30.14,10,10,5,6,0,,0.00,0,,136
2012-10-24,79,60,42,60,52,42,100,81,43,30.25,30.18,30.12,10,10,7,7,1,,0.00,0,,75
2012-10-25,81,64,46,64,57,47,100,80,47,30.17,30.12,30.06,10,9,1,12,2,21,0.00,2,,91
2012-10-26,79,66,52,64,57,53,100,77,44,30.10,30.02,29.94,10,8,0,16,4,22,0.00,1,,40
2012-10-27,75,66,57,61,58,56,100,82,57,29.94,29.82,29.73,10,10,7,13,6,20,0.00,2,,353
2012-10-28,71,60,48,57,51,41,100,76,49,29.81,29.76,29.70,10,10,5,18,7,25,0.00,3,,304
2012-10-29,61,51,41,41,37,32,83,61,40,29.82,29.76,29.69,10,10,10,23,11,34,0.00,1,,295
2012-10-30,57,50,44,32,28,24,62,45,31,29.81,29.70,29.64,10,10,10,21,11,32,0.00,2,,270
2012-10-31,64,52,41,31,27,24,66,43,22,29.90,29.85,29.81,10,10,7,20,9,29,0.00,0,,262